createdAt,value
2022-11-27T00:00:29.295Z,99814.75
2022-11-27T00:03:32.007Z,99813.50
2022-11-27T00:06:36.771Z,99810.31
2022-11-27T00:09:39.842Z,99801.53
2022-11-27T00:12:42.900Z,99800.72
2022-11-27T00:15:45.602Z,99793.56
2022-11-27T00:18:48.256Z,99796.59
2022-11-27T00:21:52.305Z,99795.47
2022-11-27T00:24:55.231Z,99793.91
2022-11-27T00:27:57.896Z,99796.16
2022-11-27T00:31:01.017Z,99780.69
2022-11-27T00:34:07.751Z,99781.38
2022-11-27T00:37:12.215Z,99771.19
2022-11-27T00:40:15.548Z,99765.13
2022-11-27T00:43:18.211Z,99761.97
2022-11-27T00:46:27.824Z,99758.56
2022-11-27T00:49:32.177Z,99751.44
2022-11-27T00:52:36.207Z,99751.81
2022-11-27T00:55:38.975Z,99743.47
2022-11-27T00:58:41.571Z,99745.34
2022-11-27T01:01:45.029Z,99738.22
2022-11-27T01:04:48.022Z,99731.41
2022-11-27T01:07:52.129Z,99728.59
2022-11-27T01:10:56.570Z,99726.84
2022-11-27T01:14:01.421Z,99727.44
2022-11-27T01:17:04.748Z,99726.50
2022-11-27T01:20:08.771Z,99719.38
2022-11-27T01:23:12.775Z,99710.34
2022-11-27T01:26:15.549Z,99711.19
2022-11-27T01:29:18.199Z,99708.25
2022-11-27T01:32:20.751Z,99716.19
2022-11-27T01:35:23.399Z,99711.06
2022-11-27T01:38:28.163Z,99708.50
2022-11-27T01:41:32.376Z,99699.34
2022-11-27T01:44:50.290Z,99694.91
2022-11-27T01:47:55.026Z,99688.25
2022-11-27T01:50:57.731Z,99684.84
2022-11-27T01:54:01.860Z,99686.38
2022-11-27T01:57:08.200Z,99684.38
2022-11-27T02:00:14.103Z,99680.19
2022-11-27T02:03:16.988Z,99686.81
2022-11-27T02:06:19.823Z,99686.81
2022-11-27T02:09:23.852Z,99681.31
2022-11-27T02:12:28.383Z,99685.88
2022-11-27T02:15:36.444Z,99679.81
2022-11-27T02:18:43.706Z,99673.38
2022-11-27T02:21:49.474Z,99678.63
2022-11-27T02:24:57.742Z,99664.03
2022-11-27T02:28:14.651Z,99673.72
2022-11-27T02:31:23.739Z,99667.88
2022-11-27T02:34:29.366Z,99674.53
2022-11-27T02:37:35.010Z,99679.53
2022-11-27T02:40:40.244Z,99666.22
2022-11-27T02:43:46.239Z,99658.03
2022-11-27T02:46:50.996Z,99664.72
2022-11-27T02:49:57.013Z,99665.63
2022-11-27T02:53:02.863Z,99662.50
2022-11-27T02:56:08.193Z,99655.13
2022-11-27T02:59:13.349Z,99651.25
2022-11-27T03:02:20.114Z,99657.28
2022-11-27T03:05:24.495Z,99661.03
2022-11-27T03:08:32.081Z,99653.47
2022-11-27T03:11:35.069Z,99646.66
2022-11-27T03:14:38.890Z,99648.53
2022-11-27T03:17:53.182Z,99641.53
2022-11-27T03:21:02.255Z,99655.19
2022-11-27T03:24:05.624Z,99655.97
2022-11-27T03:27:08.385Z,99641.94
2022-11-27T03:30:12.267Z,99639.19
2022-11-27T03:33:16.142Z,99634.16
2022-11-27T03:36:20.668Z,99622.81
2022-11-27T03:39:23.738Z,99626.31
2022-11-27T03:42:30.421Z,99629.00
2022-11-27T03:45:36.753Z,99631.47
2022-11-27T03:48:44.990Z,99638.38
2022-11-27T03:51:52.521Z,99631.47
2022-11-27T03:55:00.878Z,99648.53
2022-11-27T03:58:06.784Z,99645.09
2022-11-27T04:01:11.774Z,99652.50
2022-11-27T04:04:15.995Z,99634.72
2022-11-27T04:07:18.727Z,99628.88
2022-11-27T04:10:21.392Z,99622.22
2022-11-27T04:13:24.025Z,99622.41
2022-11-27T04:16:26.734Z,99623.53
2022-11-27T04:19:30.725Z,99624.63
2022-11-27T04:22:33.136Z,99622.66
2022-11-27T04:25:35.890Z,99617.97
2022-11-27T04:28:38.619Z,99620.88
2022-11-27T04:31:41.292Z,99621.91
2022-11-27T04:34:45.505Z,99603.19
2022-11-27T04:37:48.111Z,99601.19
2022-11-27T04:40:52.591Z,99603.34
2022-11-27T04:43:55.289Z,99596.91
2022-11-27T04:46:58.006Z,99603.53
2022-11-27T04:50:02.640Z,99595.84
2022-11-27T04:53:05.367Z,99598.41
2022-11-27T04:56:08.429Z,99589.50
2022-11-27T04:59:11.005Z,99595.09
2022-11-27T05:02:13.534Z,99592.41
2022-11-27T05:05:20.253Z,99600.44
2022-11-27T05:08:22.983Z,99599.69
2022-11-27T05:11:25.582Z,99594.19
2022-11-27T05:14:29.384Z,99585.78
2022-11-27T05:17:31.951Z,99587.03
2022-11-27T05:20:36.006Z,99585.84
2022-11-27T05:23:38.635Z,99583.78
2022-11-27T05:26:41.391Z,99581.25
2022-11-27T05:29:43.957Z,99585.00
2022-11-27T05:32:46.620Z,99581.72
2022-11-27T05:35:50.491Z,99581.97
2022-11-27T05:38:52.960Z,99575.41
2022-11-27T05:41:55.526Z,99578.09
2022-11-27T05:44:58.722Z,99573.09
2022-11-27T05:48:01.396Z,99567.59
2022-11-27T05:51:06.066Z,99565.72
2022-11-27T05:54:08.727Z,99580.34
2022-11-27T05:57:11.616Z,99587.69
2022-11-27T06:00:15.670Z,99591.66
2022-11-27T06:03:18.632Z,99588.59
2022-11-27T06:06:22.757Z,99592.09
2022-11-27T06:09:25.737Z,99598.31
2022-11-27T06:12:28.438Z,99588.06
2022-11-27T06:15:31.102Z,99588.97
2022-11-27T06:18:33.736Z,99586.28
2022-11-27T06:21:38.111Z,99579.81
2022-11-27T06:24:41.079Z,99587.81
2022-11-27T06:27:44.088Z,99587.06
2022-11-27T06:30:46.672Z,99584.69
2022-11-27T06:33:50.618Z,99591.97
2022-11-27T06:36:54.636Z,99588.69
2022-11-27T06:39:57.303Z,99594.44
2022-11-27T06:42:59.955Z,99590.78
2022-11-27T06:46:03.451Z,99586.59
2022-11-27T06:49:06.444Z,99575.16
2022-11-27T06:52:10.462Z,99562.94
2022-11-27T06:55:13.058Z,99565.63
2022-11-27T06:58:15.753Z,99576.59
2022-11-27T07:01:18.871Z,99571.94
2022-11-27T07:04:21.570Z,99561.69
2022-11-27T07:07:25.689Z,99564.28
2022-11-27T07:10:28.398Z,99566.19
2022-11-27T07:13:31.232Z,99567.94
2022-11-27T07:16:35.962Z,99567.16
2022-11-27T07:19:38.694Z,99567.31
2022-11-27T07:22:43.174Z,99563.56
2022-11-27T07:25:45.891Z,99563.09
2022-11-27T07:28:48.851Z,99549.56
2022-11-27T07:31:51.854Z,99537.47
2022-11-27T07:34:54.565Z,99526.38
2022-11-27T07:37:58.714Z,99517.16
2022-11-27T07:41:02.045Z,99513.25
2022-11-27T07:44:04.922Z,99505.63
2022-11-27T07:47:07.682Z,99504.69
2022-11-27T07:50:11.694Z,99507.97
2022-11-27T07:53:15.777Z,99502.91
2022-11-27T07:56:19.180Z,99493.31
2022-11-27T07:59:21.956Z,99495.84
2022-11-27T08:02:24.692Z,99497.59
2022-11-27T08:05:27.400Z,99496.63
2022-11-27T08:08:31.324Z,99497.44
2022-11-27T08:11:35.201Z,99500.47
2022-11-27T08:14:38.316Z,99507.09
2022-11-27T08:17:41.318Z,99507.75
2022-11-27T08:20:43.948Z,99504.88
2022-11-27T08:23:48.034Z,99495.75
2022-11-27T08:26:52.141Z,99493.63
2022-11-27T08:29:54.901Z,99492.97
2022-11-27T08:32:57.509Z,99497.63
2022-11-27T08:36:00.690Z,99489.03
2022-11-27T08:39:04.855Z,99481.91
2022-11-27T08:42:07.505Z,99475.22
2022-11-27T08:45:11.620Z,99482.91
2022-11-27T08:48:14.168Z,99481.28
2022-11-27T08:51:17.406Z,99486.00
2022-11-27T08:54:21.477Z,99479.78
2022-11-27T08:57:24.480Z,99470.09
2022-11-27T09:00:28.230Z,99471.78
2022-11-27T09:03:30.882Z,99463.78
2022-11-27T09:06:34.887Z,99452.25
2022-11-27T09:09:38.944Z,99449.59
2022-11-27T09:12:43.567Z,99449.41
2022-11-27T09:15:46.334Z,99457.66
2022-11-27T09:18:51.390Z,99461.19
2022-11-27T09:21:54.064Z,99460.72
2022-11-27T09:24:58.235Z,99458.81
2022-11-27T09:28:01.011Z,99464.25
2022-11-27T09:31:08.279Z,99457.09
2022-11-27T09:34:11.961Z,99448.72
2022-11-27T09:37:14.594Z,99434.41
2022-11-27T09:40:18.800Z,99424.69
2022-11-27T09:43:28.145Z,99428.22
2022-11-27T09:46:33.317Z,99450.88
2022-11-27T09:49:39.350Z,99450.28
2022-11-27T09:52:44.273Z,99432.63
2022-11-27T09:55:51.111Z,99429.31
2022-11-27T09:58:57.419Z,99417.13
2022-11-27T10:02:00.208Z,99414.78
2022-11-27T10:05:13.998Z,99400.69
2022-11-27T10:08:31.408Z,99387.44
2022-11-27T10:11:37.693Z,99390.69
2022-11-27T10:15:00.753Z,99393.13
2022-11-27T10:18:07.292Z,99387.72
2022-11-27T10:21:16.671Z,99372.81
2022-11-27T10:24:24.509Z,99376.84
2022-11-27T10:27:34.230Z,99372.75
2022-11-27T10:30:40.445Z,99372.97
2022-11-27T10:33:45.095Z,99374.03
2022-11-27T10:37:24.864Z,99381.13
2022-11-27T10:40:31.933Z,99373.91
2022-11-27T10:43:36.084Z,99363.38
2022-11-27T10:46:40.339Z,99362.88
2022-11-27T10:49:43.682Z,99351.78
2022-11-27T10:52:52.472Z,99355.31
2022-11-27T10:56:03.092Z,99351.25
2022-11-27T10:59:10.537Z,99339.31
2022-11-27T11:02:31.352Z,99336.31
2022-11-27T11:06:04.134Z,99326.56
2022-11-27T11:09:03.000Z,99324.09
2022-11-27T11:12:09.138Z,99309.69
2022-11-27T11:15:14.564Z,99296.06
2022-11-27T11:18:18.587Z,99291.59
2022-11-27T11:21:27.494Z,99280.66
2022-11-27T11:24:31.389Z,99274.53
2022-11-27T11:27:34.030Z,99264.91
2022-11-27T11:30:39.522Z,99255.34
2022-11-27T11:33:51.236Z,99237.25
2022-11-27T11:36:57.844Z,99239.47
2022-11-27T11:40:02.244Z,99235.44
2022-11-27T11:43:10.111Z,99239.75
2022-11-27T11:46:22.576Z,99237.81
2022-11-27T11:49:26.295Z,99239.81
2022-11-27T11:52:39.368Z,99231.16
2022-11-27T11:55:46.889Z,99219.69
2022-11-27T11:58:56.485Z,99214.38
2022-11-27T12:02:18.191Z,99219.16
2022-11-27T12:05:26.815Z,99207.09
2022-11-27T12:08:40.809Z,99198.69
2022-11-27T12:11:44.568Z,99188.56
2022-11-27T12:14:51.905Z,99191.72
2022-11-27T12:18:01.028Z,99186.28
2022-11-27T12:21:12.638Z,99186.09
2022-11-27T12:24:24.349Z,99180.22
2022-11-27T12:27:34.582Z,99176.47
2022-11-27T12:30:43.236Z,99167.97
2022-11-27T12:33:58.494Z,99156.34
2022-11-27T12:37:14.108Z,99165.81
2022-11-27T12:40:30.297Z,99164.34
2022-11-27T12:43:35.507Z,99155.75
2022-11-27T12:46:44.334Z,99148.63
2022-11-27T12:49:49.988Z,99144.38
2022-11-27T12:53:00.145Z,99146.50
2022-11-27T12:56:09.661Z,99135.94
2022-11-27T12:59:15.614Z,99140.53
2022-11-27T13:02:28.396Z,99127.88
2022-11-27T13:05:35.956Z,99125.25
2022-11-27T13:08:51.008Z,99123.56
2022-11-27T13:11:55.559Z,99117.03
2022-11-27T13:15:02.629Z,99113.00
2022-11-27T13:18:13.370Z,99101.16
2022-11-27T13:21:22.759Z,99101.28
2022-11-27T13:24:27.227Z,99090.66
2022-11-27T13:27:31.429Z,99086.63
2022-11-27T13:30:37.053Z,99076.84
2022-11-27T13:33:42.108Z,99076.88
2022-11-27T13:36:48.333Z,99085.06
2022-11-27T13:39:51.054Z,99083.44
2022-11-27T13:42:56.464Z,99080.25
2022-11-27T13:46:05.199Z,99074.97
2022-11-27T13:49:08.187Z,99077.22
2022-11-27T13:52:14.024Z,99077.03
2022-11-27T13:55:25.060Z,99076.47
2022-11-27T13:58:32.601Z,99070.44
2022-11-27T14:01:35.356Z,99060.53
2022-11-27T14:04:55.591Z,99058.19
2022-11-27T14:08:00.781Z,99060.81
2022-11-27T14:11:06.516Z,99059.09
2022-11-27T14:14:16.253Z,99058.66
2022-11-27T14:17:27.310Z,99045.69
2022-11-27T14:20:31.660Z,99041.09
2022-11-27T14:23:38.025Z,99036.09
2022-11-27T14:26:42.335Z,99035.97
2022-11-27T14:29:45.235Z,99029.22
2022-11-27T14:32:49.017Z,99030.25
2022-11-27T14:35:51.973Z,99017.22
2022-11-27T14:38:56.155Z,99013.13
2022-11-27T14:42:00.367Z,99013.28
2022-11-27T14:45:05.130Z,98994.56
2022-11-27T14:48:07.988Z,98982.34
2022-11-27T14:51:15.542Z,98975.78
2022-11-27T14:54:23.600Z,98967.53
2022-11-27T14:57:27.619Z,98958.50
2022-11-27T15:00:32.420Z,98958.00
2022-11-27T15:03:35.597Z,98946.72
2022-11-27T15:06:41.741Z,98953.38
2022-11-27T15:09:48.179Z,98955.41
2022-11-27T15:12:51.622Z,98953.06
2022-11-27T15:15:57.223Z,98951.94
2022-11-27T15:19:02.503Z,98951.13
2022-11-27T15:22:05.824Z,98940.31
2022-11-27T15:25:31.098Z,98944.63
2022-11-27T15:28:36.704Z,98934.72
2022-11-27T15:31:39.728Z,98935.22
2022-11-27T15:34:42.749Z,98938.59
2022-11-27T15:37:45.590Z,98939.84
2022-11-27T15:40:59.236Z,98928.44
2022-11-27T15:44:03.198Z,98920.84
2022-11-27T15:47:07.380Z,98919.78
2022-11-27T15:50:15.583Z,98916.97
2022-11-27T15:53:18.678Z,98921.91
2022-11-27T15:56:22.738Z,98915.66
2022-11-27T15:59:27.254Z,98927.66
2022-11-27T16:02:31.209Z,98923.59
2022-11-27T16:05:34.273Z,98921.78
2022-11-27T16:08:37.124Z,98925.88
2022-11-27T16:11:41.579Z,98918.91
2022-11-27T16:14:44.340Z,98915.97
2022-11-27T16:17:47.090Z,98913.84
2022-11-27T16:20:49.833Z,98915.00
2022-11-27T16:23:52.746Z,98920.44
2022-11-27T16:26:57.257Z,98915.00
2022-11-27T16:29:59.888Z,98918.09
2022-11-27T16:33:02.888Z,98919.19
2022-11-27T16:36:06.971Z,98919.88
2022-11-27T16:39:09.851Z,98913.91
2022-11-27T16:42:14.005Z,98897.59
2022-11-27T16:45:16.632Z,98893.13
2022-11-27T16:48:19.391Z,98887.03
2022-11-27T16:51:23.734Z,98882.25
2022-11-27T16:54:26.564Z,98874.91
2022-11-27T16:57:30.667Z,98874.47
2022-11-27T17:00:33.357Z,98872.78
2022-11-27T17:03:36.274Z,98865.16
2022-11-27T17:06:39.886Z,98850.47
2022-11-27T17:09:43.002Z,98844.50
2022-11-27T17:12:47.091Z,98837.69
2022-11-27T17:15:49.730Z,98828.78
2022-11-27T17:18:52.444Z,98838.72
2022-11-27T17:21:55.436Z,98827.09
2022-11-27T17:24:58.648Z,98840.00
2022-11-27T17:28:02.645Z,98832.34
2022-11-27T17:31:10.461Z,98829.56
2022-11-27T17:34:14.643Z,98822.50
2022-11-27T17:37:17.687Z,98822.91
2022-11-27T17:40:20.500Z,98823.97
2022-11-27T17:43:25.660Z,98819.41
2022-11-27T17:46:30.507Z,98813.97
2022-11-27T17:49:33.297Z,98811.31
2022-11-27T17:52:36.012Z,98798.63
2022-11-27T17:55:38.869Z,98797.50
2022-11-27T17:58:43.455Z,98789.97
2022-11-27T18:01:48.359Z,98805.03
2022-11-27T18:04:51.040Z,98793.13
2022-11-27T18:07:54.393Z,98792.09
2022-11-27T18:10:57.026Z,98790.56
2022-11-27T18:14:00.987Z,98789.06
2022-11-27T18:17:05.492Z,98774.94
2022-11-27T18:20:09.175Z,98776.25
2022-11-27T18:23:12.255Z,98764.06
2022-11-27T18:26:17.311Z,98781.97
2022-11-27T18:29:21.685Z,98779.84
2022-11-27T18:32:24.497Z,98786.22
2022-11-27T18:35:27.386Z,98783.88
2022-11-27T18:38:31.570Z,98783.59
2022-11-27T18:41:34.736Z,98777.94
2022-11-27T18:44:44.713Z,98785.56
2022-11-27T18:47:47.940Z,98768.91
2022-11-27T18:50:50.651Z,98760.84
2022-11-27T18:53:54.350Z,98754.16
2022-11-27T18:56:57.060Z,98756.66
2022-11-27T19:00:01.216Z,98759.88
2022-11-27T19:03:04.149Z,98759.38
2022-11-27T19:06:08.633Z,98752.84
2022-11-27T19:09:12.320Z,98744.09
2022-11-27T19:12:14.850Z,98745.75
2022-11-27T19:15:19.680Z,98735.44
2022-11-27T19:18:22.507Z,98724.03
2022-11-27T19:21:27.678Z,98705.28
2022-11-27T19:24:30.297Z,98700.88
2022-11-27T19:27:32.868Z,98693.41
2022-11-27T19:30:38.498Z,98689.50
2022-11-27T19:33:41.739Z,98679.63
2022-11-27T19:36:44.607Z,98679.25
2022-11-27T19:39:47.405Z,98679.25
2022-11-27T19:42:55.636Z,98671.34
2022-11-27T19:46:03.872Z,98658.66
2022-11-27T19:49:08.217Z,98668.16
2022-11-27T19:52:10.772Z,98673.97
2022-11-27T19:55:13.357Z,98670.16
2022-11-27T19:58:16.122Z,98676.63
2022-11-27T20:01:20.723Z,98673.41
2022-11-27T20:04:23.740Z,98679.94
2022-11-27T20:07:26.416Z,98689.97
2022-11-27T20:10:29.255Z,98681.69
2022-11-27T20:13:31.813Z,98678.22
2022-11-27T20:16:37.307Z,98667.31
2022-11-27T20:19:40.314Z,98670.25
2022-11-27T20:22:43.446Z,98672.44
2022-11-27T20:25:49.380Z,98665.41
2022-11-27T20:28:53.514Z,98667.31
2022-11-27T20:31:57.791Z,98658.38
2022-11-27T20:35:00.773Z,98646.41
2022-11-27T20:38:03.819Z,98630.56
2022-11-27T20:41:07.876Z,98628.81
2022-11-27T20:44:11.542Z,98625.84
2022-11-27T20:47:15.408Z,98623.94
2022-11-27T20:50:18.449Z,98628.38
2022-11-27T20:53:21.284Z,98636.94
2022-11-27T20:56:24.009Z,98623.88
2022-11-27T20:59:26.642Z,98603.94
2022-11-27T21:02:30.792Z,98595.16
2022-11-27T21:05:33.734Z,98609.22
2022-11-27T21:08:36.604Z,98607.63
2022-11-27T21:11:39.393Z,98594.94
2022-11-27T21:14:42.238Z,98606.88
2022-11-27T21:17:46.307Z,98603.06
2022-11-27T21:20:48.922Z,98612.44
2022-11-27T21:23:51.785Z,98609.75
2022-11-27T21:26:54.495Z,98614.44
2022-11-27T21:29:57.266Z,98611.75
2022-11-27T21:33:01.780Z,98611.75
2022-11-27T21:36:05.405Z,98606.59
2022-11-27T21:39:10.395Z,98598.75
2022-11-27T21:42:13.261Z,98604.53
2022-11-27T21:45:16.147Z,98603.44
2022-11-27T21:48:20.733Z,98612.63
2022-11-27T21:51:23.829Z,98594.50
2022-11-27T21:54:26.647Z,98582.84
2022-11-27T21:57:29.518Z,98585.56
2022-11-27T22:00:32.402Z,98594.44
2022-11-27T22:03:41.111Z,98572.41
2022-11-27T22:06:45.481Z,98565.09
2022-11-27T22:09:48.213Z,98570.00
2022-11-27T22:12:50.820Z,98560.47
2022-11-27T22:15:53.507Z,98560.59
2022-11-27T22:18:58.805Z,98547.97
2022-11-27T22:22:01.604Z,98550.28
2022-11-27T22:25:04.891Z,98547.56
2022-11-27T22:28:07.516Z,98552.59
2022-11-27T22:31:11.137Z,98554.81
2022-11-27T22:34:15.247Z,98561.03
2022-11-27T22:37:18.055Z,98555.69
2022-11-27T22:40:21.805Z,98547.63
2022-11-27T22:43:24.503Z,98537.00
2022-11-27T22:46:29.167Z,98540.50
2022-11-27T22:49:33.245Z,98536.75
2022-11-27T22:52:35.958Z,98509.94
2022-11-27T22:55:38.711Z,98524.81
2022-11-27T22:58:42.105Z,98528.63
2022-11-27T23:01:44.845Z,98517.28
2022-11-27T23:04:48.894Z,98515.06
2022-11-27T23:07:51.923Z,98498.50
2022-11-27T23:10:54.620Z,98492.06
2022-11-27T23:13:58.532Z,98503.94
2022-11-27T23:17:01.181Z,98493.09
2022-11-27T23:20:06.547Z,98485.19
2022-11-27T23:23:10.028Z,98473.66
2022-11-27T23:26:18.084Z,98471.31
2022-11-27T23:29:21.081Z,98465.91
2022-11-27T23:32:23.764Z,98463.25
2022-11-27T23:35:28.855Z,98460.66
2022-11-27T23:38:31.549Z,98460.94
2022-11-27T23:41:34.338Z,98448.28
2022-11-27T23:44:37.254Z,98454.59
2022-11-27T23:47:40.271Z,98452.19
2022-11-27T23:50:44.586Z,98453.00
2022-11-27T23:53:47.739Z,98429.88
2022-11-27T23:56:52.650Z,98423.88
2022-11-27T23:59:55.366Z,98424.59
